sensor_id;sensor_type;location;lat;lon;timestamp;temperature;humidity
5723;DHT22;2886;49.722;8.612;2023-11-22T00:00:10;4.70;99.90
5723;DHT22;2886;49.722;8.612;2023-11-22T00:02:37;4.70;99.90
5723;DHT22;2886;49.722;8.612;2023-11-22T00:05:03;4.70;99.90
5723;DHT22;2886;49.722;8.612;2023-11-22T00:07:31;4.70;99.90
5723;DHT22;2886;49.722;8.612;2023-11-22T00:09:56;4.80;99.90
5723;DHT22;2886;49.722;8.612;2023-11-22T00:12:22;4.80;99.90
5723;DHT22;2886;49.722;8.612;2023-11-22T00:14:49;4.70;99.90
5723;DHT22;2886;49.722;8.612;2023-11-22T00:17:15;4.70;99.90
5723;DHT22;2886;49.722;8.612;2023-11-22T00:19:43;4.70;99.90
5723;DHT22;2886;49.722;8.612;2023-11-22T00:22:12;4.70;99.90
5723;DHT22;2886;49.722;8.612;2023-11-22T00:24:40;4.70;99.90
5723;DHT22;2886;49.722;8.612;2023-11-22T00:27:09;4.70;99.90
5723;DHT22;2886;49.722;8.612;2023-11-22T00:29:35;4.70;99.90
5723;DHT22;2886;49.722;8.612;2023-11-22T00:32:01;4.60;99.90
5723;DHT22;2886;49.722;8.612;2023-11-22T00:34:27;4.70;99.90
5723;DHT22;2886;49.722;8.612;2023-11-22T00:36:53;4.60;99.90
5723;DHT22;2886;49.722;8.612;2023-11-22T00:39:19;4.60;99.90
5723;DHT22;2886;49.722;8.612;2023-11-22T00:41:45;4.50;99.90
5723;DHT22;2886;49.722;8.612;2023-11-22T00:44:11;4.50;99.90
5723;DHT22;2886;49.722;8.612;2023-11-22T00:46:36;4.50;99.90
5723;DHT22;2886;49.722;8.612;2023-11-22T00:49:05;4.50;99.90
5723;DHT22;2886;49.722;8.612;2023-11-22T00:51:31;4.50;99.90
5723;DHT22;2886;49.722;8.612;2023-11-22T00:54:02;4.40;99.90
5723;DHT22;2886;49.722;8.612;2023-11-22T00:56:27;4.30;99.90
5723;DHT22;2886;49.722;8.612;2023-11-22T00:58:53;4.30;99.90
5723;DHT22;2886;49.722;8.612;2023-11-22T01:01:21;4.30;99.90
5723;DHT22;2886;49.722;8.612;2023-11-22T01:03:46;4.30;99.90
5723;DHT22;2886;49.722;8.612;2023-11-22T01:06:13;4.20;99.90
5723;DHT22;2886;49.722;8.612;2023-11-22T01:08:39;4.20;99.90
5723;DHT22;2886;49.722;8.612;2023-11-22T01:11:04;4.20;99.90
5723;DHT22;2886;49.722;8.612;2023-11-22T01:13:31;4.10;99.90
5723;DHT22;2886;49.722;8.612;2023-11-22T01:15:58;4.10;99.90
5723;DHT22;2886;49.722;8.612;2023-11-22T01:18:24;4.00;99.90
5723;DHT22;2886;49.722;8.612;2023-11-22T01:20:50;4.00;99.90
5723;DHT22;2886;49.722;8.612;2023-11-22T01:23:15;4.00;99.90
5723;DHT22;2886;49.722;8.612;2023-11-22T01:25:41;3.90;99.90
5723;DHT22;2886;49.722;8.612;2023-11-22T01:28:06;3.90;99.90
5723;DHT22;2886;49.722;8.612;2023-11-22T01:30:32;3.80;99.90
5723;DHT22;2886;49.722;8.612;2023-11-22T01:32:58;3.80;99.90
5723;DHT22;2886;49.722;8.612;2023-11-22T01:35:24;3.80;99.90
5723;DHT22;2886;49.722;8.612;2023-11-22T01:37:50;3.80;99.90
5723;DHT22;2886;49.722;8.612;2023-11-22T01:40:16;3.80;99.90
5723;DHT22;2886;49.722;8.612;2023-11-22T01:42:44;3.70;99.90
5723;DHT22;2886;49.722;8.612;2023-11-22T01:45:12;3.70;99.90
5723;DHT22;2886;49.722;8.612;2023-11-22T01:47:38;3.70;99.90
5723;DHT22;2886;49.722;8.612;2023-11-22T01:50:06;3.70;99.90
5723;DHT22;2886;49.722;8.612;2023-11-22T01:52:32;3.70;99.90
5723;DHT22;2886;49.722;8.612;2023-11-22T01:54:58;3.70;99.90
5723;DHT22;2886;49.722;8.612;2023-11-22T01:57:25;3.60;99.90
5723;DHT22;2886;49.722;8.612;2023-11-22T01:59:51;3.60;99.90
5723;DHT22;2886;49.722;8.612;2023-11-22T02:02:16;3.60;99.90
5723;DHT22;2886;49.722;8.612;2023-11-22T02:04:42;3.60;99.90
5723;DHT22;2886;49.722;8.612;2023-11-22T02:07:09;3.50;99.90
5723;DHT22;2886;49.722;8.612;2023-11-22T02:09:36;3.50;99.90
5723;DHT22;2886;49.722;8.612;2023-11-22T02:12:02;3.40;99.90
5723;DHT22;2886;49.722;8.612;2023-11-22T02:14:28;3.40;99.90
5723;DHT22;2886;49.722;8.612;2023-11-22T02:16:53;3.40;99.90
5723;DHT22;2886;49.722;8.612;2023-11-22T02:19:20;3.30;99.90
5723;DHT22;2886;49.722;8.612;2023-11-22T02:21:46;3.30;99.90
5723;DHT22;2886;49.722;8.612;2023-11-22T02:24:12;3.30;99.90
5723;DHT22;2886;49.722;8.612;2023-11-22T02:26:42;3.30;99.90
5723;DHT22;2886;49.722;8.612;2023-11-22T02:29:09;3.20;99.90
5723;DHT22;2886;49.722;8.612;2023-11-22T02:31:34;3.20;99.90
5723;DHT22;2886;49.722;8.612;2023-11-22T02:34:01;3.10;99.90
5723;DHT22;2886;49.722;8.612;2023-11-22T02:36:26;3.00;99.90
5723;DHT22;2886;49.722;8.612;2023-11-22T02:38:52;3.00;99.90
5723;DHT22;2886;49.722;8.612;2023-11-22T02:41:18;2.90;99.90
5723;DHT22;2886;49.722;8.612;2023-11-22T02:43:44;2.90;99.90
5723;DHT22;2886;49.722;8.612;2023-11-22T02:46:09;2.90;99.90
5723;DHT22;2886;49.722;8.612;2023-11-22T02:48:35;2.90;99.90
5723;DHT22;2886;49.722;8.612;2023-11-22T02:51:01;2.80;99.90
5723;DHT22;2886;49.722;8.612;2023-11-22T02:53:27;2.90;99.90
5723;DHT22;2886;49.722;8.612;2023-11-22T02:55:53;2.80;99.90
5723;DHT22;2886;49.722;8.612;2023-11-22T02:58:21;2.80;99.90
5723;DHT22;2886;49.722;8.612;2023-11-22T03:00:47;2.80;99.90
5723;DHT22;2886;49.722;8.612;2023-11-22T03:03:13;2.80;99.90
5723;DHT22;2886;49.722;8.612;2023-11-22T03:05:39;2.80;99.90
5723;DHT22;2886;49.722;8.612;2023-11-22T03:08:07;2.80;99.90
5723;DHT22;2886;49.722;8.612;2023-11-22T03:10:35;2.70;99.90
5723;DHT22;2886;49.722;8.612;2023-11-22T03:13:01;2.80;99.90
5723;DHT22;2886;49.722;8.612;2023-11-22T03:15:26;2.70;99.90
5723;DHT22;2886;49.722;8.612;2023-11-22T03:17:52;2.70;99.90
5723;DHT22;2886;49.722;8.612;2023-11-22T03:20:17;2.70;99.90
5723;DHT22;2886;49.722;8.612;2023-11-22T03:22:44;2.70;99.90
5723;DHT22;2886;49.722;8.612;2023-11-22T03:25:10;2.60;99.90
5723;DHT22;2886;49.722;8.612;2023-11-22T03:27:37;2.60;99.90
5723;DHT22;2886;49.722;8.612;2023-11-22T03:30:04;2.60;99.90
5723;DHT22;2886;49.722;8.612;2023-11-22T03:32:30;2.60;99.90
5723;DHT22;2886;49.722;8.612;2023-11-22T03:34:56;2.60;99.90
5723;DHT22;2886;49.722;8.612;2023-11-22T03:37:23;2.60;99.90
5723;DHT22;2886;49.722;8.612;2023-11-22T03:39:49;2.50;99.90
5723;DHT22;2886;49.722;8.612;2023-11-22T03:42:16;2.50;99.90
5723;DHT22;2886;49.722;8.612;2023-11-22T03:44:42;2.50;99.90
5723;DHT22;2886;49.722;8.612;2023-11-22T03:47:09;2.50;99.90
5723;DHT22;2886;49.722;8.612;2023-11-22T03:49:36;2.40;99.90
5723;DHT22;2886;49.722;8.612;2023-11-22T03:52:02;2.40;99.90
5723;DHT22;2886;49.722;8.612;2023-11-22T03:54:27;2.40;99.90
5723;DHT22;2886;49.722;8.612;2023-11-22T03:56:53;2.40;99.90
5723;DHT22;2886;49.722;8.612;2023-11-22T03:59:19;2.40;99.90
5723;DHT22;2886;49.722;8.612;2023-11-22T04:01:44;2.40;99.90
5723;DHT22;2886;49.722;8.612;2023-11-22T04:04:10;2.30;99.90
5723;DHT22;2886;49.722;8.612;2023-11-22T04:06:36;2.30;99.90
5723;DHT22;2886;49.722;8.612;2023-11-22T04:09:01;2.20;99.90
5723;DHT22;2886;49.722;8.612;2023-11-22T04:11:28;2.20;99.90
5723;DHT22;2886;49.722;8.612;2023-11-22T04:13:55;2.10;99.90
5723;DHT22;2886;49.722;8.612;2023-11-22T04:16:21;2.10;99.90
5723;DHT22;2886;49.722;8.612;2023-11-22T04:18:46;2.00;99.90
5723;DHT22;2886;49.722;8.612;2023-11-22T04:21:12;2.00;99.90
5723;DHT22;2886;49.722;8.612;2023-11-22T04:23:38;2.00;99.90
5723;DHT22;2886;49.722;8.612;2023-11-22T04:26:03;2.00;99.90
5723;DHT22;2886;49.722;8.612;2023-11-22T04:28:29;1.90;99.90
5723;DHT22;2886;49.722;8.612;2023-11-22T04:30:56;1.90;99.90
5723;DHT22;2886;49.722;8.612;2023-11-22T04:33:23;1.80;99.90
5723;DHT22;2886;49.722;8.612;2023-11-22T04:35:51;1.80;99.90
5723;DHT22;2886;49.722;8.612;2023-11-22T04:38:17;1.70;99.90
5723;DHT22;2886;49.722;8.612;2023-11-22T04:40:43;1.70;99.90
5723;DHT22;2886;49.722;8.612;2023-11-22T04:43:09;1.70;99.90
5723;DHT22;2886;49.722;8.612;2023-11-22T04:45:35;1.70;99.90
5723;DHT22;2886;49.722;8.612;2023-11-22T04:48:01;1.60;99.90
5723;DHT22;2886;49.722;8.612;2023-11-22T04:50:27;1.60;99.90
5723;DHT22;2886;49.722;8.612;2023-11-22T04:52:53;1.60;99.90
5723;DHT22;2886;49.722;8.612;2023-11-22T04:55:18;1.60;99.90
5723;DHT22;2886;49.722;8.612;2023-11-22T04:57:45;1.60;99.90
5723;DHT22;2886;49.722;8.612;2023-11-22T05:00:11;1.60;99.90
5723;DHT22;2886;49.722;8.612;2023-11-22T05:02:38;1.60;99.90
5723;DHT22;2886;49.722;8.612;2023-11-22T05:05:04;1.60;99.90
5723;DHT22;2886;49.722;8.612;2023-11-22T05:07:29;1.60;99.90
5723;DHT22;2886;49.722;8.612;2023-11-22T05:09:55;1.60;99.90
5723;DHT22;2886;49.722;8.612;2023-11-22T05:12:20;1.60;99.90
5723;DHT22;2886;49.722;8.612;2023-11-22T05:14:46;1.60;99.90
5723;DHT22;2886;49.722;8.612;2023-11-22T05:17:12;1.60;99.90
5723;DHT22;2886;49.722;8.612;2023-11-22T05:19:38;1.60;99.90
5723;DHT22;2886;49.722;8.612;2023-11-22T05:22:04;1.60;99.90
5723;DHT22;2886;49.722;8.612;2023-11-22T05:24:30;1.60;99.90
5723;DHT22;2886;49.722;8.612;2023-11-22T05:26:55;1.60;99.90
5723;DHT22;2886;49.722;8.612;2023-11-22T05:29:21;1.70;99.90
5723;DHT22;2886;49.722;8.612;2023-11-22T05:31:47;1.80;99.90
5723;DHT22;2886;49.722;8.612;2023-11-22T05:34:13;1.90;99.90
5723;DHT22;2886;49.722;8.612;2023-11-22T05:36:38;2.00;99.90
5723;DHT22;2886;49.722;8.612;2023-11-22T05:39:04;2.00;99.90
5723;DHT22;2886;49.722;8.612;2023-11-22T05:41:30;2.10;99.90
5723;DHT22;2886;49.722;8.612;2023-11-22T05:43:56;2.10;99.90
5723;DHT22;2886;49.722;8.612;2023-11-22T05:46:23;2.10;99.90
5723;DHT22;2886;49.722;8.612;2023-11-22T05:48:51;2.10;99.90
5723;DHT22;2886;49.722;8.612;2023-11-22T05:51:17;2.10;99.90
5723;DHT22;2886;49.722;8.612;2023-11-22T05:53:43;2.10;99.90
5723;DHT22;2886;49.722;8.612;2023-11-22T05:56:10;2.00;99.90
5723;DHT22;2886;49.722;8.612;2023-11-22T05:58:36;2.10;99.90
5723;DHT22;2886;49.722;8.612;2023-11-22T06:01:08;2.00;99.90
5723;DHT22;2886;49.722;8.612;2023-11-22T06:03:35;2.00;99.90
5723;DHT22;2886;49.722;8.612;2023-11-22T06:06:01;2.00;99.90
5723;DHT22;2886;49.722;8.612;2023-11-22T06:08:28;2.00;99.90
5723;DHT22;2886;49.722;8.612;2023-11-22T06:10:56;1.90;99.90
5723;DHT22;2886;49.722;8.612;2023-11-22T06:13:23;1.90;99.90
5723;DHT22;2886;49.722;8.612;2023-11-22T06:15:49;1.90;99.90
5723;DHT22;2886;49.722;8.612;2023-11-22T06:18:14;1.80;99.90
5723;DHT22;2886;49.722;8.612;2023-11-22T06:20:41;1.90;99.90
5723;DHT22;2886;49.722;8.612;2023-11-22T06:23:07;1.90;99.90
5723;DHT22;2886;49.722;8.612;2023-11-22T06:25:32;1.80;99.90
5723;DHT22;2886;49.722;8.612;2023-11-22T06:27:58;1.70;99.90
5723;DHT22;2886;49.722;8.612;2023-11-22T06:30:24;1.70;99.90
5723;DHT22;2886;49.722;8.612;2023-11-22T06:32:51;1.60;99.90
5723;DHT22;2886;49.722;8.612;2023-11-22T06:35:16;1.60;99.90
5723;DHT22;2886;49.722;8.612;2023-11-22T06:37:43;1.60;99.90
5723;DHT22;2886;49.722;8.612;2023-11-22T06:40:10;1.50;99.90
5723;DHT22;2886;49.722;8.612;2023-11-22T06:42:39;1.50;99.90
5723;DHT22;2886;49.722;8.612;2023-11-22T06:45:05;1.50;99.90
5723;DHT22;2886;49.722;8.612;2023-11-22T06:47:44;1.50;99.90
5723;DHT22;2886;49.722;8.612;2023-11-22T06:50:10;1.40;99.90
5723;DHT22;2886;49.722;8.612;2023-11-22T06:52:39;1.50;99.90
5723;DHT22;2886;49.722;8.612;2023-11-22T06:55:05;1.60;99.90
5723;DHT22;2886;49.722;8.612;2023-11-22T06:57:33;1.40;99.90
5723;DHT22;2886;49.722;8.612;2023-11-22T06:59:59;1.40;99.90
5723;DHT22;2886;49.722;8.612;2023-11-22T07:02:26;1.50;99.90
5723;DHT22;2886;49.722;8.612;2023-11-22T07:04:52;1.40;99.90
5723;DHT22;2886;49.722;8.612;2023-11-22T07:07:17;1.40;99.90
5723;DHT22;2886;49.722;8.612;2023-11-22T07:09:44;1.30;99.90
5723;DHT22;2886;49.722;8.612;2023-11-22T07:12:10;1.30;99.90
5723;DHT22;2886;49.722;8.612;2023-11-22T07:14:36;1.30;99.90
5723;DHT22;2886;49.722;8.612;2023-11-22T07:17:02;1.30;99.90
5723;DHT22;2886;49.722;8.612;2023-11-22T07:19:28;1.20;99.90
5723;DHT22;2886;49.722;8.612;2023-11-22T07:21:54;1.20;99.90
5723;DHT22;2886;49.722;8.612;2023-11-22T07:24:20;1.20;99.90
5723;DHT22;2886;49.722;8.612;2023-11-22T07:26:46;1.20;99.90
5723;DHT22;2886;49.722;8.612;2023-11-22T07:29:12;1.20;99.90
5723;DHT22;2886;49.722;8.612;2023-11-22T07:31:38;1.20;99.90
5723;DHT22;2886;49.722;8.612;2023-11-22T07:34:06;1.30;99.90
5723;DHT22;2886;49.722;8.612;2023-11-22T07:36:32;1.30;99.90
5723;DHT22;2886;49.722;8.612;2023-11-22T07:38:57;1.30;99.90
5723;DHT22;2886;49.722;8.612;2023-11-22T07:41:24;1.30;99.90
5723;DHT22;2886;49.722;8.612;2023-11-22T07:43:50;1.30;99.90
5723;DHT22;2886;49.722;8.612;2023-11-22T07:46:16;1.30;99.90
5723;DHT22;2886;49.722;8.612;2023-11-22T07:48:43;1.40;99.90
5723;DHT22;2886;49.722;8.612;2023-11-22T07:51:08;1.40;99.90
5723;DHT22;2886;49.722;8.612;2023-11-22T07:53:34;1.50;99.90
5723;DHT22;2886;49.722;8.612;2023-11-22T07:56:03;1.60;99.90
5723;DHT22;2886;49.722;8.612;2023-11-22T07:58:32;1.70;99.90
5723;DHT22;2886;49.722;8.612;2023-11-22T08:01:01;1.80;99.90
5723;DHT22;2886;49.722;8.612;2023-11-22T08:03:30;1.90;99.90
5723;DHT22;2886;49.722;8.612;2023-11-22T08:05:56;2.00;99.90
5723;DHT22;2886;49.722;8.612;2023-11-22T08:08:22;2.10;99.90
5723;DHT22;2886;49.722;8.612;2023-11-22T08:10:49;2.20;99.90
5723;DHT22;2886;49.722;8.612;2023-11-22T08:13:17;2.30;99.90
5723;DHT22;2886;49.722;8.612;2023-11-22T08:15:45;2.40;99.90
5723;DHT22;2886;49.722;8.612;2023-11-22T08:18:12;2.40;99.90
5723;DHT22;2886;49.722;8.612;2023-11-22T08:20:37;2.40;99.90
5723;DHT22;2886;49.722;8.612;2023-11-22T08:23:03;2.50;99.90
5723;DHT22;2886;49.722;8.612;2023-11-22T08:25:31;2.50;99.90
5723;DHT22;2886;49.722;8.612;2023-11-22T08:27:57;2.60;99.90
5723;DHT22;2886;49.722;8.612;2023-11-22T08:30:22;2.70;99.90
5723;DHT22;2886;49.722;8.612;2023-11-22T08:32:48;2.70;99.90
5723;DHT22;2886;49.722;8.612;2023-11-22T08:35:20;2.80;99.90
5723;DHT22;2886;49.722;8.612;2023-11-22T08:37:51;2.90;99.90
5723;DHT22;2886;49.722;8.612;2023-11-22T08:40:17;3.00;99.90
5723;DHT22;2886;49.722;8.612;2023-11-22T08:42:46;3.10;98.10
5723;DHT22;2886;49.722;8.612;2023-11-22T08:45:12;3.10;96.60
5723;DHT22;2886;49.722;8.612;2023-11-22T08:47:39;3.20;94.50
5723;DHT22;2886;49.722;8.612;2023-11-22T08:50:08;3.20;93.10
5723;DHT22;2886;49.722;8.612;2023-11-22T08:52:37;3.30;91.80
5723;DHT22;2886;49.722;8.612;2023-11-22T08:55:05;3.30;92.40
5723;DHT22;2886;49.722;8.612;2023-11-22T08:57:35;3.30;91.50
5723;DHT22;2886;49.722;8.612;2023-11-22T09:00:03;3.50;91.40
5723;DHT22;2886;49.722;8.612;2023-11-22T09:02:33;3.70;88.80
5723;DHT22;2886;49.722;8.612;2023-11-22T09:04:58;3.60;90.30
5723;DHT22;2886;49.722;8.612;2023-11-22T09:07:24;3.80;90.70
5723;DHT22;2886;49.722;8.612;2023-11-22T09:09:50;3.70;90.30
5723;DHT22;2886;49.722;8.612;2023-11-22T09:12:17;3.90;87.00
5723;DHT22;2886;49.722;8.612;2023-11-22T09:14:45;3.80;84.30
5723;DHT22;2886;49.722;8.612;2023-11-22T09:17:11;3.70;84.80
5723;DHT22;2886;49.722;8.612;2023-11-22T09:19:38;3.60;87.70
5723;DHT22;2886;49.722;8.612;2023-11-22T09:22:04;3.60;88.40
5723;DHT22;2886;49.722;8.612;2023-11-22T09:24:32;3.60;88.70
5723;DHT22;2886;49.722;8.612;2023-11-22T09:26:57;3.70;91.40
5723;DHT22;2886;49.722;8.612;2023-11-22T09:29:23;4.20;85.00
5723;DHT22;2886;49.722;8.612;2023-11-22T09:31:49;4.60;82.50
5723;DHT22;2886;49.722;8.612;2023-11-22T09:34:17;5.00;77.10
5723;DHT22;2886;49.722;8.612;2023-11-22T09:36:43;5.40;74.70
5723;DHT22;2886;49.722;8.612;2023-11-22T09:39:09;5.60;66.30
5723;DHT22;2886;49.722;8.612;2023-11-22T09:41:38;5.50;67.10
5723;DHT22;2886;49.722;8.612;2023-11-22T09:44:05;5.30;68.60
5723;DHT22;2886;49.722;8.612;2023-11-22T09:46:30;5.00;71.70
5723;DHT22;2886;49.722;8.612;2023-11-22T09:49:00;4.70;76.50
5723;DHT22;2886;49.722;8.612;2023-11-22T09:51:29;4.90;78.40
5723;DHT22;2886;49.722;8.612;2023-11-22T09:54:04;4.90;75.90
5723;DHT22;2886;49.722;8.612;2023-11-22T09:56:33;5.20;69.60
5723;DHT22;2886;49.722;8.612;2023-11-22T09:59:03;5.10;64.90
5723;DHT22;2886;49.722;8.612;2023-11-22T10:01:29;4.70;71.80
5723;DHT22;2886;49.722;8.612;2023-11-22T10:03:56;4.70;74.00
5723;DHT22;2886;49.722;8.612;2023-11-22T10:06:23;4.70;74.50
5723;DHT22;2886;49.722;8.612;2023-11-22T10:08:49;4.80;73.80
5723;DHT22;2886;49.722;8.612;2023-11-22T10:11:16;4.50;76.30
5723;DHT22;2886;49.722;8.612;2023-11-22T10:13:43;4.40;80.70
5723;DHT22;2886;49.722;8.612;2023-11-22T10:16:12;4.30;76.60
5723;DHT22;2886;49.722;8.612;2023-11-22T10:18:45;4.40;78.00
5723;DHT22;2886;49.722;8.612;2023-11-22T10:21:28;4.30;79.00
5723;DHT22;2886;49.722;8.612;2023-11-22T10:24:04;4.20;77.30
5723;DHT22;2886;49.722;8.612;2023-11-22T10:26:35;4.20;81.20
5723;DHT22;2886;49.722;8.612;2023-11-22T10:29:01;4.30;80.60
5723;DHT22;2886;49.722;8.612;2023-11-22T10:31:27;4.40;81.40
5723;DHT22;2886;49.722;8.612;2023-11-22T10:33:54;4.50;77.90
5723;DHT22;2886;49.722;8.612;2023-11-22T10:36:23;4.50;80.10
5723;DHT22;2886;49.722;8.612;2023-11-22T10:38:49;4.40;80.50
5723;DHT22;2886;49.722;8.612;2023-11-22T10:41:16;4.40;80.10
5723;DHT22;2886;49.722;8.612;2023-11-22T10:43:42;4.30;80.30
5723;DHT22;2886;49.722;8.612;2023-11-22T10:46:10;4.10;78.30
5723;DHT22;2886;49.722;8.612;2023-11-22T10:48:39;4.10;76.70
5723;DHT22;2886;49.722;8.612;2023-11-22T10:51:05;4.20;78.30
5723;DHT22;2886;49.722;8.612;2023-11-22T10:53:35;4.30;80.30
5723;DHT22;2886;49.722;8.612;2023-11-22T10:56:10;4.20;79.70
5723;DHT22;2886;49.722;8.612;2023-11-22T10:58:51;4.20;79.00
5723;DHT22;2886;49.722;8.612;2023-11-22T11:01:18;4.30;77.60
5723;DHT22;2886;49.722;8.612;2023-11-22T11:04:14;4.20;78.50
5723;DHT22;2886;49.722;8.612;2023-11-22T11:06:44;4.30;80.10
5723;DHT22;2886;49.722;8.612;2023-11-22T11:09:12;4.30;76.40
5723;DHT22;2886;49.722;8.612;2023-11-22T11:11:41;4.30;80.10
5723;DHT22;2886;49.722;8.612;2023-11-22T11:14:08;4.50;78.80
5723;DHT22;2886;49.722;8.612;2023-11-22T11:16:38;4.70;73.50
5723;DHT22;2886;49.722;8.612;2023-11-22T11:19:07;4.70;73.40
5723;DHT22;2886;49.722;8.612;2023-11-22T11:21:35;4.70;72.10
5723;DHT22;2886;49.722;8.612;2023-11-22T11:24:01;4.60;69.30
5723;DHT22;2886;49.722;8.612;2023-11-22T11:26:32;4.60;72.30
5723;DHT22;2886;49.722;8.612;2023-11-22T11:28:57;4.70;72.30
5723;DHT22;2886;49.722;8.612;2023-11-22T11:31:23;4.70;70.80
5723;DHT22;2886;49.722;8.612;2023-11-22T11:36:27;4.70;66.90
5723;DHT22;2886;49.722;8.612;2023-11-22T11:38:55;4.60;70.00
5723;DHT22;2886;49.722;8.612;2023-11-22T11:41:29;4.70;66.80
5723;DHT22;2886;49.722;8.612;2023-11-22T11:43:56;4.80;67.60
5723;DHT22;2886;49.722;8.612;2023-11-22T11:46:23;4.90;65.70
5723;DHT22;2886;49.722;8.612;2023-11-22T11:48:50;4.90;66.40
5723;DHT22;2886;49.722;8.612;2023-11-22T11:51:17;5.00;63.80
5723;DHT22;2886;49.722;8.612;2023-11-22T11:53:45;5.10;66.10
5723;DHT22;2886;49.722;8.612;2023-11-22T11:56:10;5.40;65.40
5723;DHT22;2886;49.722;8.612;2023-11-22T11:58:37;5.50;65.10
5723;DHT22;2886;49.722;8.612;2023-11-22T12:01:04;5.40;61.90
5723;DHT22;2886;49.722;8.612;2023-11-22T12:03:30;5.30;67.40
5723;DHT22;2886;49.722;8.612;2023-11-22T12:05:55;5.30;65.70
5723;DHT22;2886;49.722;8.612;2023-11-22T12:08:23;5.30;66.10
5723;DHT22;2886;49.722;8.612;2023-11-22T12:10:48;5.30;64.60
5723;DHT22;2886;49.722;8.612;2023-11-22T12:13:21;5.30;63.50
5723;DHT22;2886;49.722;8.612;2023-11-22T12:15:51;5.40;66.20
5723;DHT22;2886;49.722;8.612;2023-11-22T12:18:19;5.30;61.90
5723;DHT22;2886;49.722;8.612;2023-11-22T12:21:00;5.20;65.90
5723;DHT22;2886;49.722;8.612;2023-11-22T12:23:26;5.00;67.60
5723;DHT22;2886;49.722;8.612;2023-11-22T12:25:56;5.00;70.10
5723;DHT22;2886;49.722;8.612;2023-11-22T12:28:30;5.10;67.10
5723;DHT22;2886;49.722;8.612;2023-11-22T12:31:05;5.20;69.30
5723;DHT22;2886;49.722;8.612;2023-11-22T12:33:31;5.30;67.30
5723;DHT22;2886;49.722;8.612;2023-11-22T12:35:57;5.30;65.60
5723;DHT22;2886;49.722;8.612;2023-11-22T12:38:23;5.00;67.10
5723;DHT22;2886;49.722;8.612;2023-11-22T12:40:51;4.90;69.30
5723;DHT22;2886;49.722;8.612;2023-11-22T12:43:17;4.70;69.70
5723;DHT22;2886;49.722;8.612;2023-11-22T12:45:42;4.80;68.00
5723;DHT22;2886;49.722;8.612;2023-11-22T12:48:24;4.90;70.60
5723;DHT22;2886;49.722;8.612;2023-11-22T12:50:50;4.90;71.50
5723;DHT22;2886;49.722;8.612;2023-11-22T12:53:16;4.90;71.50
5723;DHT22;2886;49.722;8.612;2023-11-22T12:55:43;5.00;74.10
5723;DHT22;2886;49.722;8.612;2023-11-22T12:58:14;5.10;69.50
5723;DHT22;2886;49.722;8.612;2023-11-22T13:00:40;5.20;66.90
5723;DHT22;2886;49.722;8.612;2023-11-22T13:03:07;5.00;69.90
5723;DHT22;2886;49.722;8.612;2023-11-22T13:05:33;4.80;72.30
5723;DHT22;2886;49.722;8.612;2023-11-22T13:07:59;4.80;74.40
5723;DHT22;2886;49.722;8.612;2023-11-22T13:10:24;4.90;70.70
5723;DHT22;2886;49.722;8.612;2023-11-22T13:12:51;5.00;68.60
5723;DHT22;2886;49.722;8.612;2023-11-22T13:15:17;5.00;71.70
5723;DHT22;2886;49.722;8.612;2023-11-22T13:17:43;4.80;69.90
5723;DHT22;2886;49.722;8.612;2023-11-22T13:20:09;4.70;71.60
5723;DHT22;2886;49.722;8.612;2023-11-22T13:22:45;4.70;74.60
5723;DHT22;2886;49.722;8.612;2023-11-22T13:25:12;4.80;71.70
5723;DHT22;2886;49.722;8.612;2023-11-22T13:27:47;4.80;68.10
5723;DHT22;2886;49.722;8.612;2023-11-22T13:30:17;4.90;69.80
5723;DHT22;2886;49.722;8.612;2023-11-22T13:32:51;5.00;71.10
5723;DHT22;2886;49.722;8.612;2023-11-22T13:35:18;5.00;72.20
5723;DHT22;2886;49.722;8.612;2023-11-22T13:37:45;5.00;70.20
5723;DHT22;2886;49.722;8.612;2023-11-22T13:40:16;5.00;71.90
5723;DHT22;2886;49.722;8.612;2023-11-22T13:42:43;5.10;68.60
5723;DHT22;2886;49.722;8.612;2023-11-22T13:45:13;5.10;67.70
5723;DHT22;2886;49.722;8.612;2023-11-22T13:47:55;5.20;66.10
5723;DHT22;2886;49.722;8.612;2023-11-22T13:50:25;5.20;64.70
5723;DHT22;2886;49.722;8.612;2023-11-22T13:52:53;5.20;64.20
5723;DHT22;2886;49.722;8.612;2023-11-22T13:55:20;5.20;66.90
5723;DHT22;2886;49.722;8.612;2023-11-22T13:57:49;5.20;65.00
5723;DHT22;2886;49.722;8.612;2023-11-22T14:00:16;5.30;63.50
5723;DHT22;2886;49.722;8.612;2023-11-22T14:02:55;5.30;64.40
5723;DHT22;2886;49.722;8.612;2023-11-22T14:05:30;5.20;64.90
5723;DHT22;2886;49.722;8.612;2023-11-22T14:07:56;5.10;64.30
5723;DHT22;2886;49.722;8.612;2023-11-22T14:10:22;5.00;64.50
5723;DHT22;2886;49.722;8.612;2023-11-22T14:12:51;4.80;66.10
5723;DHT22;2886;49.722;8.612;2023-11-22T14:15:17;4.70;68.50
5723;DHT22;2886;49.722;8.612;2023-11-22T14:17:43;4.60;71.50
5723;DHT22;2886;49.722;8.612;2023-11-22T14:20:12;4.50;70.10
5723;DHT22;2886;49.722;8.612;2023-11-22T14:22:39;4.50;70.10
5723;DHT22;2886;49.722;8.612;2023-11-22T14:25:05;4.40;73.30
5723;DHT22;2886;49.722;8.612;2023-11-22T14:27:45;4.40;73.10
5723;DHT22;2886;49.722;8.612;2023-11-22T14:30:12;4.30;74.50
5723;DHT22;2886;49.722;8.612;2023-11-22T14:32:40;4.20;76.50
5723;DHT22;2886;49.722;8.612;2023-11-22T14:35:08;4.30;77.20
5723;DHT22;2886;49.722;8.612;2023-11-22T14:37:33;4.10;78.50
5723;DHT22;2886;49.722;8.612;2023-11-22T14:40:00;4.10;79.00
5723;DHT22;2886;49.722;8.612;2023-11-22T14:42:25;4.10;79.90
5723;DHT22;2886;49.722;8.612;2023-11-22T14:44:51;4.20;80.30
5723;DHT22;2886;49.722;8.612;2023-11-22T14:47:17;4.10;80.40
5723;DHT22;2886;49.722;8.612;2023-11-22T14:49:51;4.10;81.20
5723;DHT22;2886;49.722;8.612;2023-11-22T14:52:16;4.10;81.70
5723;DHT22;2886;49.722;8.612;2023-11-22T14:54:43;4.20;80.50
5723;DHT22;2886;49.722;8.612;2023-11-22T14:57:10;4.20;82.70
5723;DHT22;2886;49.722;8.612;2023-11-22T14:59:38;4.10;82.20
5723;DHT22;2886;49.722;8.612;2023-11-22T15:02:04;4.10;82.20
5723;DHT22;2886;49.722;8.612;2023-11-22T15:04:36;4.00;81.10
5723;DHT22;2886;49.722;8.612;2023-11-22T15:07:03;4.00;81.60
5723;DHT22;2886;49.722;8.612;2023-11-22T15:09:30;4.00;82.20
5723;DHT22;2886;49.722;8.612;2023-11-22T15:12:01;3.80;83.60
5723;DHT22;2886;49.722;8.612;2023-11-22T15:14:31;3.80;84.50
5723;DHT22;2886;49.722;8.612;2023-11-22T15:16:58;3.70;84.50
5723;DHT22;2886;49.722;8.612;2023-11-22T15:19:26;3.70;84.60
5723;DHT22;2886;49.722;8.612;2023-11-22T15:21:53;3.60;85.40
5723;DHT22;2886;49.722;8.612;2023-11-22T15:24:19;3.50;84.40
5723;DHT22;2886;49.722;8.612;2023-11-22T15:26:45;3.50;86.00
5723;DHT22;2886;49.722;8.612;2023-11-22T15:29:11;3.50;87.40
5723;DHT22;2886;49.722;8.612;2023-11-22T15:31:37;3.40;88.60
5723;DHT22;2886;49.722;8.612;2023-11-22T15:34:03;3.30;89.70
5723;DHT22;2886;49.722;8.612;2023-11-22T15:36:28;3.20;91.40
5723;DHT22;2886;49.722;8.612;2023-11-22T15:38:54;3.20;92.60
5723;DHT22;2886;49.722;8.612;2023-11-22T15:41:20;3.10;93.70
5723;DHT22;2886;49.722;8.612;2023-11-22T15:43:45;3.10;95.10
5723;DHT22;2886;49.722;8.612;2023-11-22T15:46:12;3.00;95.70
5723;DHT22;2886;49.722;8.612;2023-11-22T15:48:39;3.00;95.90
5723;DHT22;2886;49.722;8.612;2023-11-22T15:51:05;3.00;95.70
5723;DHT22;2886;49.722;8.612;2023-11-22T15:53:33;2.90;96.10
5723;DHT22;2886;49.722;8.612;2023-11-22T15:55:59;2.90;96.40
5723;DHT22;2886;49.722;8.612;2023-11-22T15:58:25;2.80;96.70
5723;DHT22;2886;49.722;8.612;2023-11-22T16:00:50;2.80;96.80
5723;DHT22;2886;49.722;8.612;2023-11-22T16:03:18;2.80;96.90
5723;DHT22;2886;49.722;8.612;2023-11-22T16:05:44;2.80;97.20
5723;DHT22;2886;49.722;8.612;2023-11-22T16:08:11;2.80;97.50
5723;DHT22;2886;49.722;8.612;2023-11-22T16:10:37;2.80;97.80
5723;DHT22;2886;49.722;8.612;2023-11-22T16:13:03;2.70;98.10
5723;DHT22;2886;49.722;8.612;2023-11-22T16:15:29;2.70;98.20
5723;DHT22;2886;49.722;8.612;2023-11-22T16:17:54;2.70;98.20